This is the latest recevied weather packets stored in our database for station/object WMKI. If no packets are shown the sender has not sent any weather packets the latest 10 day(s).
| Time | Temp. | Humidity | Pressure | Rain* | Wind** | Luminosity | Snow |
|---|---|---|---|---|---|---|---|
| 1777759836 | 23.89° C | 94% | 1008 hPa | - | - | - | - |
| 1777756236 | 23.89° C | 94% | 1008 hPa | - | - | - | - |
| 1777752636 | 23.89° C | 94% | 1008 hPa | - | - | - | - |
| 1777749593 | 23.89° C | 10% | - | - | - | - | - |
| 1777749055 | 25° C | 94% | 1009 hPa | - | - | - | - |
| 1777745435 | 25° C | 94% | 1009 hPa | - | - | - | - |
| 1777741835 | 25° C | 94% | 1010 hPa | - | - | - | - |
| 1777740635 | 25° C | 94% | 1011 hPa | - | - | - | - |
| 1777740050 | 23.89° C | 96% | 1011.2 hPa | - | - | - | - |
| 1777739392 | 25° C | 94% | 1011 hPa | - | - | - | - |
| 1777738235 | 25° C | 94% | 1010 hPa | - | - | - | - |
| 1777734635 | 25° C | 94% | 1010 hPa | - | - | - | - |
| 1777731052 | 26.67° C | 94% | 1010 hPa | - | - | - | - |
| 1777727435 | 26.67° C | 94% | 1009 hPa | - | - | - | - |
| 1777723840 | 27.78° C | 83% | 1008 hPa | - | - | - | - |
| 1777720237 | 27.78° C | 83% | 1007 hPa | - | - | - | - |
| 1777716652 | 28.89° C | 83% | 1006 hPa | - | - | - | - |
| 1777713592 | 27.78° C | 78% | 1005 hPa | - | - | - | - |
| 1777713035 | 27.78° C | 78% | 1005 hPa | - | - | - | - |
| 1777709435 | 32.78° C | 62% | 1005 hPa | - | - | - | - |
| 1777705836 | 32.78° C | 59% | 1006 hPa | - | - | - | - |
| 1777702250 | 32.78° C | 59% | 1008 hPa | - | - | - | - |
| 1777698638 | 32.78° C | 62% | 1009 hPa | - | - | - | - |
| 1777695034 | 31.67° C | 62% | 1010 hPa | - | - | - | - |
| 1777691434 | 30.56° C | 66% | 1010 hPa | - | - | - | - |
* Rain since midnight (hover to see other rain measurements)
** Current wind speed in m/s (hover to see current wind gust speed)